sensor_id;sensor_type;location;lat;lon;timestamp;P1;durP1;ratioP1;P2;durP2;ratioP2
18194;SDS011;9223;50.988;3.162;2022-12-20T00:02:49;4.57;;;2.67;;
18194;SDS011;9223;50.988;3.162;2022-12-20T00:08:53;3.22;;;2.85;;
18194;SDS011;9223;50.988;3.162;2022-12-20T00:14:59;3.20;;;2.90;;
18194;SDS011;9223;50.988;3.162;2022-12-20T00:21:03;6.38;;;4.18;;
18194;SDS011;9223;50.988;3.162;2022-12-20T00:27:07;6.47;;;3.53;;
18194;SDS011;9223;50.988;3.162;2022-12-20T00:33:11;12.70;;;7.95;;
18194;SDS011;9223;50.988;3.162;2022-12-20T00:39:15;7.13;;;4.65;;
18194;SDS011;9223;50.988;3.162;2022-12-20T00:45:18;6.68;;;4.20;;
18194;SDS011;9223;50.988;3.162;2022-12-20T00:51:24;5.32;;;3.38;;
18194;SDS011;9223;50.988;3.162;2022-12-20T00:57:28;4.00;;;2.65;;
18194;SDS011;9223;50.988;3.162;2022-12-20T01:03:31;3.70;;;2.47;;
18194;SDS011;9223;50.988;3.162;2022-12-20T01:09:37;3.80;;;2.55;;
18194;SDS011;9223;50.988;3.162;2022-12-20T01:15:40;4.05;;;2.75;;
18194;SDS011;9223;50.988;3.162;2022-12-20T01:21:43;4.43;;;3.40;;
18194;SDS011;9223;50.988;3.162;2022-12-20T01:27:49;5.95;;;2.80;;
18194;SDS011;9223;50.988;3.162;2022-12-20T01:33:52;3.58;;;2.45;;
18194;SDS011;9223;50.988;3.162;2022-12-20T01:39:56;3.47;;;2.85;;
18194;SDS011;9223;50.988;3.162;2022-12-20T01:46:00;4.47;;;2.58;;
18194;SDS011;9223;50.988;3.162;2022-12-20T01:52:04;2.80;;;2.28;;
18194;SDS011;9223;50.988;3.162;2022-12-20T01:58:09;5.63;;;3.00;;
18194;SDS011;9223;50.988;3.162;2022-12-20T02:04:15;4.13;;;3.50;;
18194;SDS011;9223;50.988;3.162;2022-12-20T02:10:19;4.22;;;3.42;;
18194;SDS011;9223;50.988;3.162;2022-12-20T02:16:23;4.03;;;3.63;;
18194;SDS011;9223;50.988;3.162;2022-12-20T02:22:31;4.50;;;3.90;;
18194;SDS011;9223;50.988;3.162;2022-12-20T02:28:46;5.30;;;3.88;;
18194;SDS011;9223;50.988;3.162;2022-12-20T02:34:57;3.80;;;2.75;;
18194;SDS011;9223;50.988;3.162;2022-12-20T02:41:01;3.20;;;2.45;;
18194;SDS011;9223;50.988;3.162;2022-12-20T02:47:08;6.70;;;4.72;;
18194;SDS011;9223;50.988;3.162;2022-12-20T02:53:15;7.05;;;4.35;;
18194;SDS011;9223;50.988;3.162;2022-12-20T02:59:19;19.20;;;8.77;;
18194;SDS011;9223;50.988;3.162;2022-12-20T03:05:24;5.63;;;3.47;;
18194;SDS011;9223;50.988;3.162;2022-12-20T03:11:29;3.83;;;3.05;;
18194;SDS011;9223;50.988;3.162;2022-12-20T03:17:32;5.40;;;3.13;;
18194;SDS011;9223;50.988;3.162;2022-12-20T03:23:36;4.07;;;3.30;;
18194;SDS011;9223;50.988;3.162;2022-12-20T03:29:41;4.25;;;3.33;;
18194;SDS011;9223;50.988;3.162;2022-12-20T03:35:46;4.18;;;3.63;;
18194;SDS011;9223;50.988;3.162;2022-12-20T03:41:49;5.57;;;3.90;;
18194;SDS011;9223;50.988;3.162;2022-12-20T03:47:54;4.47;;;3.45;;
18194;SDS011;9223;50.988;3.162;2022-12-20T03:53:58;4.82;;;3.08;;
18194;SDS011;9223;50.988;3.162;2022-12-20T04:00:01;4.00;;;3.58;;
18194;SDS011;9223;50.988;3.162;2022-12-20T04:06:07;3.50;;;2.67;;
18194;SDS011;9223;50.988;3.162;2022-12-20T04:12:10;3.65;;;3.00;;
18194;SDS011;9223;50.988;3.162;2022-12-20T04:18:13;3.35;;;2.10;;
18194;SDS011;9223;50.988;3.162;2022-12-20T04:24:18;4.80;;;2.60;;
18194;SDS011;9223;50.988;3.162;2022-12-20T04:30:22;2.45;;;1.90;;
18194;SDS011;9223;50.988;3.162;2022-12-20T04:36:26;3.03;;;2.60;;
18194;SDS011;9223;50.988;3.162;2022-12-20T04:42:30;5.15;;;2.80;;
18194;SDS011;9223;50.988;3.162;2022-12-20T04:48:34;2.92;;;2.28;;
18194;SDS011;9223;50.988;3.162;2022-12-20T04:55:00;3.55;;;2.72;;
18194;SDS011;9223;50.988;3.162;2022-12-20T05:01:05;2.75;;;1.98;;
18194;SDS011;9223;50.988;3.162;2022-12-20T05:07:08;3.70;;;2.85;;
18194;SDS011;9223;50.988;3.162;2022-12-20T05:13:12;3.67;;;2.05;;
18194;SDS011;9223;50.988;3.162;2022-12-20T05:19:17;6.07;;;2.25;;
18194;SDS011;9223;50.988;3.162;2022-12-20T05:25:20;3.05;;;2.30;;
18194;SDS011;9223;50.988;3.162;2022-12-20T05:31:41;2.70;;;2.08;;
18194;SDS011;9223;50.988;3.162;2022-12-20T05:37:46;3.10;;;2.15;;
18194;SDS011;9223;50.988;3.162;2022-12-20T05:43:49;5.22;;;3.17;;
18194;SDS011;9223;50.988;3.162;2022-12-20T05:49:53;5.30;;;2.90;;
18194;SDS011;9223;50.988;3.162;2022-12-20T05:55:58;4.38;;;2.42;;
18194;SDS011;9223;50.988;3.162;2022-12-20T06:02:01;1.80;;;1.60;;
18194;SDS011;9223;50.988;3.162;2022-12-20T06:08:05;4.95;;;2.17;;
18194;SDS011;9223;50.988;3.162;2022-12-20T06:14:11;3.30;;;2.22;;
18194;SDS011;9223;50.988;3.162;2022-12-20T06:20:15;3.42;;;2.25;;
18194;SDS011;9223;50.988;3.162;2022-12-20T06:26:18;5.43;;;2.45;;
18194;SDS011;9223;50.988;3.162;2022-12-20T06:32:25;6.10;;;2.53;;
18194;SDS011;9223;50.988;3.162;2022-12-20T06:38:28;11.80;;;3.03;;
18194;SDS011;9223;50.988;3.162;2022-12-20T06:44:31;5.15;;;2.63;;
18194;SDS011;9223;50.988;3.162;2022-12-20T06:50:37;7.60;;;2.85;;
18194;SDS011;9223;50.988;3.162;2022-12-20T06:56:40;4.72;;;3.00;;
18194;SDS011;9223;50.988;3.162;2022-12-20T07:02:44;5.55;;;2.75;;
18194;SDS011;9223;50.988;3.162;2022-12-20T07:08:49;6.68;;;2.83;;
18194;SDS011;9223;50.988;3.162;2022-12-20T07:14:53;6.15;;;2.92;;
18194;SDS011;9223;50.988;3.162;2022-12-20T07:20:58;6.90;;;3.67;;
18194;SDS011;9223;50.988;3.162;2022-12-20T07:27:03;5.28;;;2.75;;
18194;SDS011;9223;50.988;3.162;2022-12-20T07:33:06;8.50;;;2.80;;
18194;SDS011;9223;50.988;3.162;2022-12-20T07:39:10;6.63;;;3.13;;
18194;SDS011;9223;50.988;3.162;2022-12-20T07:45:15;5.90;;;3.28;;
18194;SDS011;9223;50.988;3.162;2022-12-20T07:51:20;4.35;;;3.50;;
18194;SDS011;9223;50.988;3.162;2022-12-20T07:57:26;4.60;;;2.70;;
18194;SDS011;9223;50.988;3.162;2022-12-20T08:03:35;4.35;;;2.85;;
18194;SDS011;9223;50.988;3.162;2022-12-20T08:09:40;4.50;;;2.28;;
18194;SDS011;9223;50.988;3.162;2022-12-20T08:15:45;4.25;;;2.60;;
18194;SDS011;9223;50.988;3.162;2022-12-20T08:21:50;4.60;;;2.60;;
18194;SDS011;9223;50.988;3.162;2022-12-20T08:27:54;4.10;;;3.20;;
18194;SDS011;9223;50.988;3.162;2022-12-20T08:33:57;5.18;;;2.83;;
18194;SDS011;9223;50.988;3.162;2022-12-20T08:40:02;4.63;;;2.92;;
18194;SDS011;9223;50.988;3.162;2022-12-20T08:46:08;4.00;;;2.15;;
18194;SDS011;9223;50.988;3.162;2022-12-20T08:52:12;5.00;;;2.08;;
18194;SDS011;9223;50.988;3.162;2022-12-20T08:58:17;5.97;;;2.65;;
18194;SDS011;9223;50.988;3.162;2022-12-20T09:04:20;3.65;;;2.60;;
18194;SDS011;9223;50.988;3.162;2022-12-20T09:10:24;5.32;;;2.55;;
18194;SDS011;9223;50.988;3.162;2022-12-20T09:16:29;4.93;;;2.90;;
18194;SDS011;9223;50.988;3.162;2022-12-20T09:22:33;3.38;;;2.25;;
18194;SDS011;9223;50.988;3.162;2022-12-20T09:28:36;2.60;;;2.15;;
18194;SDS011;9223;50.988;3.162;2022-12-20T09:34:41;5.47;;;2.30;;
18194;SDS011;9223;50.988;3.162;2022-12-20T09:40:46;4.15;;;2.22;;
18194;SDS011;9223;50.988;3.162;2022-12-20T09:46:52;2.95;;;2.10;;
18194;SDS011;9223;50.988;3.162;2022-12-20T09:53:01;6.07;;;2.53;;
18194;SDS011;9223;50.988;3.162;2022-12-20T09:59:09;5.40;;;2.28;;
18194;SDS011;9223;50.988;3.162;2022-12-20T10:05:14;3.67;;;2.05;;
18194;SDS011;9223;50.988;3.162;2022-12-20T10:11:25;4.22;;;2.25;;
18194;SDS011;9223;50.988;3.162;2022-12-20T10:17:42;2.63;;;2.05;;
18194;SDS011;9223;50.988;3.162;2022-12-20T10:23:51;5.68;;;2.08;;
18194;SDS011;9223;50.988;3.162;2022-12-20T10:30:00;3.70;;;2.20;;
18194;SDS011;9223;50.988;3.162;2022-12-20T10:36:16;4.07;;;2.53;;
18194;SDS011;9223;50.988;3.162;2022-12-20T10:42:24;4.18;;;2.67;;
18194;SDS011;9223;50.988;3.162;2022-12-20T10:48:30;5.85;;;3.30;;
18194;SDS011;9223;50.988;3.162;2022-12-20T10:54:35;6.18;;;2.90;;
18194;SDS011;9223;50.988;3.162;2022-12-20T11:00:39;3.28;;;2.50;;
18194;SDS011;9223;50.988;3.162;2022-12-20T11:06:44;6.03;;;3.15;;
18194;SDS011;9223;50.988;3.162;2022-12-20T11:12:51;3.20;;;2.20;;
18194;SDS011;9223;50.988;3.162;2022-12-20T11:18:59;8.02;;;4.72;;
18194;SDS011;9223;50.988;3.162;2022-12-20T11:25:10;2.90;;;2.15;;
18194;SDS011;9223;50.988;3.162;2022-12-20T11:31:22;3.75;;;2.50;;
18194;SDS011;9223;50.988;3.162;2022-12-20T11:37:30;2.10;;;1.90;;
18194;SDS011;9223;50.988;3.162;2022-12-20T11:43:43;3.58;;;2.28;;
18194;SDS011;9223;50.988;3.162;2022-12-20T11:50:13;3.35;;;2.40;;
18194;SDS011;9223;50.988;3.162;2022-12-20T11:56:20;3.35;;;2.30;;
18194;SDS011;9223;50.988;3.162;2022-12-20T12:02:30;4.32;;;2.58;;
18194;SDS011;9223;50.988;3.162;2022-12-20T12:08:39;3.80;;;2.50;;
18194;SDS011;9223;50.988;3.162;2022-12-20T12:14:47;4.18;;;2.95;;
18194;SDS011;9223;50.988;3.162;2022-12-20T12:20:55;3.05;;;2.40;;
18194;SDS011;9223;50.988;3.162;2022-12-20T12:27:09;6.30;;;3.55;;
18194;SDS011;9223;50.988;3.162;2022-12-20T12:33:17;2.83;;;2.10;;
18194;SDS011;9223;50.988;3.162;2022-12-20T12:39:35;5.68;;;2.75;;
18194;SDS011;9223;50.988;3.162;2022-12-20T12:45:41;3.08;;;2.67;;
18194;SDS011;9223;50.988;3.162;2022-12-20T12:51:48;4.68;;;3.30;;
18194;SDS011;9223;50.988;3.162;2022-12-20T12:57:56;3.35;;;2.58;;
18194;SDS011;9223;50.988;3.162;2022-12-20T13:04:19;2.58;;;2.03;;
18194;SDS011;9223;50.988;3.162;2022-12-20T13:16:48;5.18;;;3.08;;
18194;SDS011;9223;50.988;3.162;2022-12-20T13:23:13;3.22;;;2.72;;
18194;SDS011;9223;50.988;3.162;2022-12-20T13:29:22;2.63;;;2.30;;
18194;SDS011;9223;50.988;3.162;2022-12-20T13:35:29;3.30;;;2.45;;
18194;SDS011;9223;50.988;3.162;2022-12-20T13:41:36;5.45;;;3.30;;
18194;SDS011;9223;50.988;3.162;2022-12-20T13:47:41;5.28;;;4.07;;
18194;SDS011;9223;50.988;3.162;2022-12-20T13:53:50;17.20;;;10.38;;
18194;SDS011;9223;50.988;3.162;2022-12-20T13:59:56;4.68;;;4.03;;
18194;SDS011;9223;50.988;3.162;2022-12-20T14:06:08;4.32;;;3.92;;
18194;SDS011;9223;50.988;3.162;2022-12-20T14:12:14;3.63;;;3.28;;
18194;SDS011;9223;50.988;3.162;2022-12-20T14:18:28;4.45;;;3.40;;
18194;SDS011;9223;50.988;3.162;2022-12-20T14:24:32;6.22;;;4.70;;
18194;SDS011;9223;50.988;3.162;2022-12-20T14:30:41;5.93;;;4.60;;
18194;SDS011;9223;50.988;3.162;2022-12-20T14:36:45;3.88;;;3.53;;
18194;SDS011;9223;50.988;3.162;2022-12-20T14:42:49;5.30;;;4.53;;
18194;SDS011;9223;50.988;3.162;2022-12-20T14:49:15;3.97;;;3.67;;
18194;SDS011;9223;50.988;3.162;2022-12-20T14:55:19;5.85;;;5.15;;
18194;SDS011;9223;50.988;3.162;2022-12-20T15:01:25;5.55;;;4.93;;
18194;SDS011;9223;50.988;3.162;2022-12-20T15:07:33;6.10;;;5.50;;
18194;SDS011;9223;50.988;3.162;2022-12-20T15:13:37;5.03;;;4.53;;
18194;SDS011;9223;50.988;3.162;2022-12-20T15:19:43;6.60;;;5.18;;
18194;SDS011;9223;50.988;3.162;2022-12-20T15:25:48;5.57;;;4.88;;
18194;SDS011;9223;50.988;3.162;2022-12-20T15:31:52;6.07;;;4.63;;
18194;SDS011;9223;50.988;3.162;2022-12-20T15:37:56;7.35;;;5.25;;
18194;SDS011;9223;50.988;3.162;2022-12-20T15:44:02;6.07;;;5.13;;
18194;SDS011;9223;50.988;3.162;2022-12-20T15:50:08;8.52;;;5.65;;
18194;SDS011;9223;50.988;3.162;2022-12-20T15:56:15;6.63;;;6.03;;
18194;SDS011;9223;50.988;3.162;2022-12-20T16:02:22;7.25;;;6.13;;
18194;SDS011;9223;50.988;3.162;2022-12-20T16:08:26;7.93;;;7.15;;
18194;SDS011;9223;50.988;3.162;2022-12-20T16:14:29;9.05;;;6.55;;
18194;SDS011;9223;50.988;3.162;2022-12-20T16:20:34;9.57;;;6.88;;
18194;SDS011;9223;50.988;3.162;2022-12-20T16:26:38;9.95;;;8.18;;
18194;SDS011;9223;50.988;3.162;2022-12-20T16:32:42;8.93;;;7.60;;
18194;SDS011;9223;50.988;3.162;2022-12-20T16:38:47;9.95;;;8.95;;
18194;SDS011;9223;50.988;3.162;2022-12-20T16:44:51;11.40;;;8.73;;
18194;SDS011;9223;50.988;3.162;2022-12-20T16:50:55;9.40;;;8.35;;
18194;SDS011;9223;50.988;3.162;2022-12-20T16:57:00;11.65;;;9.02;;
18194;SDS011;9223;50.988;3.162;2022-12-20T17:03:03;10.18;;;9.15;;
18194;SDS011;9223;50.988;3.162;2022-12-20T17:09:08;10.93;;;9.40;;
18194;SDS011;9223;50.988;3.162;2022-12-20T17:15:30;12.18;;;10.93;;
18194;SDS011;9223;50.988;3.162;2022-12-20T17:21:34;11.45;;;10.25;;
18194;SDS011;9223;50.988;3.162;2022-12-20T17:27:56;11.55;;;10.40;;
18194;SDS011;9223;50.988;3.162;2022-12-20T17:34:02;17.15;;;14.15;;
18194;SDS011;9223;50.988;3.162;2022-12-20T17:40:06;14.77;;;12.18;;
18194;SDS011;9223;50.988;3.162;2022-12-20T17:46:09;16.00;;;12.50;;
18194;SDS011;9223;50.988;3.162;2022-12-20T17:52:15;11.80;;;10.23;;
18194;SDS011;9223;50.988;3.162;2022-12-20T17:58:20;13.18;;;10.70;;
18194;SDS011;9223;50.988;3.162;2022-12-20T18:04:24;12.82;;;10.23;;
18194;SDS011;9223;50.988;3.162;2022-12-20T18:10:29;12.77;;;11.25;;
18194;SDS011;9223;50.988;3.162;2022-12-20T18:16:34;18.10;;;14.50;;
18194;SDS011;9223;50.988;3.162;2022-12-20T18:22:39;19.90;;;15.13;;
18194;SDS011;9223;50.988;3.162;2022-12-20T18:28:44;23.30;;;18.48;;
18194;SDS011;9223;50.988;3.162;2022-12-20T18:34:48;25.42;;;21.92;;
18194;SDS011;9223;50.988;3.162;2022-12-20T18:40:52;37.72;;;32.15;;
18194;SDS011;9223;50.988;3.162;2022-12-20T18:46:56;29.95;;;24.42;;
18194;SDS011;9223;50.988;3.162;2022-12-20T18:53:00;24.92;;;22.08;;
18194;SDS011;9223;50.988;3.162;2022-12-20T18:59:04;29.33;;;20.42;;
18194;SDS011;9223;50.988;3.162;2022-12-20T19:05:14;21.63;;;16.90;;
18194;SDS011;9223;50.988;3.162;2022-12-20T19:11:20;17.17;;;12.82;;
18194;SDS011;9223;50.988;3.162;2022-12-20T19:17:23;20.15;;;15.00;;
18194;SDS011;9223;50.988;3.162;2022-12-20T19:23:28;25.85;;;18.80;;
18194;SDS011;9223;50.988;3.162;2022-12-20T19:29:32;15.70;;;12.93;;
18194;SDS011;9223;50.988;3.162;2022-12-20T19:35:36;19.35;;;11.80;;
18194;SDS011;9223;50.988;3.162;2022-12-20T19:41:57;20.25;;;13.70;;
18194;SDS011;9223;50.988;3.162;2022-12-20T19:48:21;17.85;;;12.07;;
18194;SDS011;9223;50.988;3.162;2022-12-20T19:54:25;18.02;;;11.90;;
18194;SDS011;9223;50.988;3.162;2022-12-20T20:00:31;15.85;;;8.63;;
18194;SDS011;9223;50.988;3.162;2022-12-20T20:06:35;12.38;;;9.32;;
18194;SDS011;9223;50.988;3.162;2022-12-20T20:12:39;15.38;;;8.80;;
18194;SDS011;9223;50.988;3.162;2022-12-20T20:18:44;13.73;;;8.80;;
18194;SDS011;9223;50.988;3.162;2022-12-20T20:24:47;11.55;;;6.95;;
18194;SDS011;9223;50.988;3.162;2022-12-20T20:30:51;11.38;;;8.60;;
18194;SDS011;9223;50.988;3.162;2022-12-20T20:36:57;15.68;;;7.53;;
18194;SDS011;9223;50.988;3.162;2022-12-20T20:43:01;18.90;;;12.23;;
18194;SDS011;9223;50.988;3.162;2022-12-20T20:49:05;19.17;;;13.07;;
18194;SDS011;9223;50.988;3.162;2022-12-20T20:55:10;15.43;;;10.20;;
18194;SDS011;9223;50.988;3.162;2022-12-20T21:01:14;20.27;;;11.48;;
18194;SDS011;9223;50.988;3.162;2022-12-20T21:07:17;28.95;;;17.75;;
18194;SDS011;9223;50.988;3.162;2022-12-20T21:13:23;23.38;;;15.10;;
18194;SDS011;9223;50.988;3.162;2022-12-20T21:19:26;24.05;;;16.70;;
18194;SDS011;9223;50.988;3.162;2022-12-20T21:25:30;18.13;;;11.30;;
18194;SDS011;9223;50.988;3.162;2022-12-20T21:31:35;19.08;;;10.75;;
18194;SDS011;9223;50.988;3.162;2022-12-20T21:37:39;19.65;;;10.75;;
18194;SDS011;9223;50.988;3.162;2022-12-20T21:43:43;14.70;;;7.97;;
18194;SDS011;9223;50.988;3.162;2022-12-20T21:49:48;12.65;;;7.15;;
18194;SDS011;9223;50.988;3.162;2022-12-20T21:55:54;8.32;;;6.63;;
18194;SDS011;9223;50.988;3.162;2022-12-20T22:01:58;11.07;;;7.35;;
18194;SDS011;9223;50.988;3.162;2022-12-20T22:08:03;15.75;;;7.28;;
18194;SDS011;9223;50.988;3.162;2022-12-20T22:14:09;12.85;;;6.80;;
18194;SDS011;9223;50.988;3.162;2022-12-20T22:20:14;13.48;;;6.88;;
18194;SDS011;9223;50.988;3.162;2022-12-20T22:26:19;14.55;;;5.90;;
18194;SDS011;9223;50.988;3.162;2022-12-20T22:32:23;10.23;;;6.40;;
18194;SDS011;9223;50.988;3.162;2022-12-20T22:38:27;9.07;;;5.90;;
18194;SDS011;9223;50.988;3.162;2022-12-20T22:44:32;9.95;;;5.55;;
18194;SDS011;9223;50.988;3.162;2022-12-20T22:50:35;11.63;;;5.65;;
18194;SDS011;9223;50.988;3.162;2022-12-20T22:56:39;9.65;;;5.35;;
18194;SDS011;9223;50.988;3.162;2022-12-20T23:02:44;7.47;;;5.10;;
18194;SDS011;9223;50.988;3.162;2022-12-20T23:08:47;10.02;;;5.70;;
18194;SDS011;9223;50.988;3.162;2022-12-20T23:14:51;10.02;;;5.45;;
18194;SDS011;9223;50.988;3.162;2022-12-20T23:21:13;16.05;;;5.40;;
18194;SDS011;9223;50.988;3.162;2022-12-20T23:27:35;11.15;;;5.30;;
18194;SDS011;9223;50.988;3.162;2022-12-20T23:33:38;14.60;;;5.35;;
18194;SDS011;9223;50.988;3.162;2022-12-20T23:39:45;15.13;;;6.25;;
18194;SDS011;9223;50.988;3.162;2022-12-20T23:45:48;14.07;;;6.53;;
18194;SDS011;9223;50.988;3.162;2022-12-20T23:51:52;17.63;;;6.13;;
18194;SDS011;9223;50.988;3.162;2022-12-20T23:57:56;10.20;;;5.88;;
